sensor_id;sensor_type;location;lat;lon;timestamp;P1;durP1;ratioP1;P2;durP2;ratioP2
19257;SDS011;9763;48.780;9.212;2024-03-08T00:01:07;5.67;;;4.60;;
19257;SDS011;9763;48.780;9.212;2024-03-08T00:04:30;6.53;;;4.60;;
19257;SDS011;9763;48.780;9.212;2024-03-08T00:07:54;5.70;;;4.83;;
19257;SDS011;9763;48.780;9.212;2024-03-08T00:11:19;6.77;;;5.30;;
19257;SDS011;9763;48.780;9.212;2024-03-08T00:14:43;5.50;;;4.80;;
19257;SDS011;9763;48.780;9.212;2024-03-08T00:18:07;7.77;;;5.47;;
19257;SDS011;9763;48.780;9.212;2024-03-08T00:21:32;7.83;;;5.70;;
19257;SDS011;9763;48.780;9.212;2024-03-08T00:24:56;6.53;;;5.20;;
19257;SDS011;9763;48.780;9.212;2024-03-08T00:28:21;7.83;;;6.20;;
19257;SDS011;9763;48.780;9.212;2024-03-08T00:31:46;6.40;;;5.30;;
19257;SDS011;9763;48.780;9.212;2024-03-08T00:35:10;6.00;;;5.13;;
19257;SDS011;9763;48.780;9.212;2024-03-08T00:38:34;8.03;;;6.13;;
19257;SDS011;9763;48.780;9.212;2024-03-08T00:41:58;7.93;;;6.00;;
19257;SDS011;9763;48.780;9.212;2024-03-08T00:45:23;5.57;;;4.60;;
19257;SDS011;9763;48.780;9.212;2024-03-08T00:48:47;7.77;;;6.20;;
19257;SDS011;9763;48.780;9.212;2024-03-08T00:52:11;8.23;;;6.03;;
19257;SDS011;9763;48.780;9.212;2024-03-08T00:55:35;7.20;;;6.13;;
19257;SDS011;9763;48.780;9.212;2024-03-08T00:58:59;7.93;;;5.93;;
19257;SDS011;9763;48.780;9.212;2024-03-08T01:02:25;6.17;;;4.93;;
19257;SDS011;9763;48.780;9.212;2024-03-08T01:05:49;6.70;;;5.10;;
19257;SDS011;9763;48.780;9.212;2024-03-08T01:09:13;6.17;;;5.57;;
19257;SDS011;9763;48.780;9.212;2024-03-08T01:12:39;6.00;;;5.23;;
19257;SDS011;9763;48.780;9.212;2024-03-08T01:16:04;6.17;;;5.37;;
19257;SDS011;9763;48.780;9.212;2024-03-08T01:19:30;8.30;;;6.27;;
19257;SDS011;9763;48.780;9.212;2024-03-08T01:22:54;7.10;;;6.40;;
19257;SDS011;9763;48.780;9.212;2024-03-08T01:26:18;7.50;;;5.70;;
19257;SDS011;9763;48.780;9.212;2024-03-08T01:29:41;7.20;;;5.50;;
19257;SDS011;9763;48.780;9.212;2024-03-08T01:33:05;9.03;;;7.20;;
19257;SDS011;9763;48.780;9.212;2024-03-08T01:36:30;6.40;;;5.23;;
19257;SDS011;9763;48.780;9.212;2024-03-08T01:39:53;9.37;;;6.30;;
19257;SDS011;9763;48.780;9.212;2024-03-08T01:43:20;7.87;;;5.73;;
19257;SDS011;9763;48.780;9.212;2024-03-08T01:46:45;7.50;;;5.97;;
19257;SDS011;9763;48.780;9.212;2024-03-08T01:50:10;6.33;;;5.67;;
19257;SDS011;9763;48.780;9.212;2024-03-08T01:53:35;6.80;;;5.80;;
19257;SDS011;9763;48.780;9.212;2024-03-08T01:56:59;6.97;;;5.47;;
19257;SDS011;9763;48.780;9.212;2024-03-08T02:00:23;7.33;;;5.47;;
19257;SDS011;9763;48.780;9.212;2024-03-08T02:03:47;8.13;;;6.07;;
19257;SDS011;9763;48.780;9.212;2024-03-08T02:07:12;8.07;;;5.73;;
19257;SDS011;9763;48.780;9.212;2024-03-08T02:10:37;7.80;;;6.10;;
19257;SDS011;9763;48.780;9.212;2024-03-08T02:14:02;6.47;;;5.43;;
19257;SDS011;9763;48.780;9.212;2024-03-08T02:17:28;7.30;;;5.93;;
19257;SDS011;9763;48.780;9.212;2024-03-08T02:20:53;8.00;;;6.43;;
19257;SDS011;9763;48.780;9.212;2024-03-08T02:24:18;9.83;;;7.60;;
19257;SDS011;9763;48.780;9.212;2024-03-08T02:27:43;6.10;;;5.10;;
19257;SDS011;9763;48.780;9.212;2024-03-08T02:31:06;8.00;;;6.40;;
19257;SDS011;9763;48.780;9.212;2024-03-08T02:34:31;7.67;;;5.90;;
19257;SDS011;9763;48.780;9.212;2024-03-08T02:37:56;7.00;;;6.00;;
19257;SDS011;9763;48.780;9.212;2024-03-08T02:41:20;8.53;;;6.03;;
19257;SDS011;9763;48.780;9.212;2024-03-08T02:44:44;6.47;;;5.47;;
19257;SDS011;9763;48.780;9.212;2024-03-08T02:48:08;8.43;;;6.70;;
19257;SDS011;9763;48.780;9.212;2024-03-08T02:51:33;6.30;;;5.33;;
19257;SDS011;9763;48.780;9.212;2024-03-08T02:54:58;6.43;;;5.83;;
19257;SDS011;9763;48.780;9.212;2024-03-08T02:58:22;7.00;;;5.47;;
19257;SDS011;9763;48.780;9.212;2024-03-08T03:01:46;6.30;;;5.50;;
19257;SDS011;9763;48.780;9.212;2024-03-08T03:05:09;6.43;;;5.83;;
19257;SDS011;9763;48.780;9.212;2024-03-08T03:08:33;6.20;;;5.20;;
19257;SDS011;9763;48.780;9.212;2024-03-08T03:11:58;8.43;;;6.47;;
19257;SDS011;9763;48.780;9.212;2024-03-08T03:15:22;5.53;;;4.90;;
19257;SDS011;9763;48.780;9.212;2024-03-08T03:18:49;6.43;;;5.00;;
19257;SDS011;9763;48.780;9.212;2024-03-08T03:22:13;7.07;;;5.67;;
19257;SDS011;9763;48.780;9.212;2024-03-08T03:25:37;7.60;;;5.90;;
19257;SDS011;9763;48.780;9.212;2024-03-08T03:29:04;6.40;;;4.97;;
19257;SDS011;9763;48.780;9.212;2024-03-08T03:32:30;7.03;;;5.93;;
19257;SDS011;9763;48.780;9.212;2024-03-08T03:35:53;7.57;;;5.50;;
19257;SDS011;9763;48.780;9.212;2024-03-08T03:39:17;7.27;;;5.87;;
19257;SDS011;9763;48.780;9.212;2024-03-08T03:42:41;7.10;;;6.00;;
19257;SDS011;9763;48.780;9.212;2024-03-08T03:46:08;6.90;;;5.00;;
19257;SDS011;9763;48.780;9.212;2024-03-08T03:49:32;8.33;;;5.80;;
19257;SDS011;9763;48.780;9.212;2024-03-08T03:52:56;7.90;;;6.90;;
19257;SDS011;9763;48.780;9.212;2024-03-08T03:56:19;7.30;;;6.60;;
19257;SDS011;9763;48.780;9.212;2024-03-08T03:59:49;7.40;;;6.60;;
19257;SDS011;9763;48.780;9.212;2024-03-08T04:03:14;11.43;;;6.03;;
19257;SDS011;9763;48.780;9.212;2024-03-08T04:06:39;8.77;;;7.43;;
19257;SDS011;9763;48.780;9.212;2024-03-08T04:10:03;8.33;;;6.60;;
19257;SDS011;9763;48.780;9.212;2024-03-08T04:13:28;7.00;;;5.80;;
19257;SDS011;9763;48.780;9.212;2024-03-08T04:16:52;6.53;;;5.80;;
19257;SDS011;9763;48.780;9.212;2024-03-08T04:20:17;9.63;;;6.73;;
19257;SDS011;9763;48.780;9.212;2024-03-08T04:23:41;8.50;;;6.33;;
19257;SDS011;9763;48.780;9.212;2024-03-08T04:27:07;9.13;;;7.50;;
19257;SDS011;9763;48.780;9.212;2024-03-08T04:30:31;7.97;;;6.57;;
19257;SDS011;9763;48.780;9.212;2024-03-08T04:33:54;9.07;;;6.73;;
19257;SDS011;9763;48.780;9.212;2024-03-08T04:37:20;7.97;;;6.27;;
19257;SDS011;9763;48.780;9.212;2024-03-08T04:40:43;9.23;;;6.80;;
19257;SDS011;9763;48.780;9.212;2024-03-08T04:44:07;8.53;;;7.30;;
19257;SDS011;9763;48.780;9.212;2024-03-08T04:47:31;8.40;;;7.13;;
19257;SDS011;9763;48.780;9.212;2024-03-08T04:50:54;8.00;;;7.03;;
19257;SDS011;9763;48.780;9.212;2024-03-08T04:54:20;11.23;;;7.30;;
19257;SDS011;9763;48.780;9.212;2024-03-08T04:57:43;8.57;;;7.13;;
19257;SDS011;9763;48.780;9.212;2024-03-08T05:01:08;6.50;;;5.73;;
19257;SDS011;9763;48.780;9.212;2024-03-08T05:04:32;9.30;;;7.67;;
19257;SDS011;9763;48.780;9.212;2024-03-08T05:07:56;9.90;;;7.60;;
19257;SDS011;9763;48.780;9.212;2024-03-08T05:11:21;8.80;;;6.93;;
19257;SDS011;9763;48.780;9.212;2024-03-08T05:14:45;9.40;;;6.03;;
19257;SDS011;9763;48.780;9.212;2024-03-08T05:18:11;8.63;;;6.97;;
19257;SDS011;9763;48.780;9.212;2024-03-08T05:21:36;8.97;;;6.77;;
19257;SDS011;9763;48.780;9.212;2024-03-08T05:25:00;8.83;;;7.00;;
19257;SDS011;9763;48.780;9.212;2024-03-08T05:28:26;8.13;;;6.60;;
19257;SDS011;9763;48.780;9.212;2024-03-08T05:31:50;8.30;;;7.30;;
19257;SDS011;9763;48.780;9.212;2024-03-08T05:35:15;8.37;;;6.70;;
19257;SDS011;9763;48.780;9.212;2024-03-08T05:38:38;7.10;;;6.30;;
19257;SDS011;9763;48.780;9.212;2024-03-08T05:42:03;8.93;;;7.50;;
19257;SDS011;9763;48.780;9.212;2024-03-08T05:45:28;9.40;;;7.20;;
19257;SDS011;9763;48.780;9.212;2024-03-08T05:48:52;8.67;;;7.60;;
19257;SDS011;9763;48.780;9.212;2024-03-08T05:52:17;8.40;;;6.70;;
19257;SDS011;9763;48.780;9.212;2024-03-08T05:55:40;10.60;;;8.33;;
19257;SDS011;9763;48.780;9.212;2024-03-08T05:59:04;9.30;;;7.00;;
19257;SDS011;9763;48.780;9.212;2024-03-08T06:02:29;8.23;;;6.47;;
19257;SDS011;9763;48.780;9.212;2024-03-08T06:05:52;7.83;;;6.93;;
19257;SDS011;9763;48.780;9.212;2024-03-08T06:09:16;8.50;;;6.70;;
19257;SDS011;9763;48.780;9.212;2024-03-08T06:12:45;9.23;;;7.07;;
19257;SDS011;9763;48.780;9.212;2024-03-08T06:16:09;8.10;;;6.67;;
19257;SDS011;9763;48.780;9.212;2024-03-08T06:19:34;9.00;;;7.80;;
19257;SDS011;9763;48.780;9.212;2024-03-08T06:22:58;8.63;;;6.53;;
19257;SDS011;9763;48.780;9.212;2024-03-08T06:26:23;7.20;;;6.40;;
19257;SDS011;9763;48.780;9.212;2024-03-08T06:29:51;7.57;;;6.30;;
19257;SDS011;9763;48.780;9.212;2024-03-08T06:33:15;9.80;;;7.80;;
19257;SDS011;9763;48.780;9.212;2024-03-08T06:36:40;8.07;;;7.27;;
19257;SDS011;9763;48.780;9.212;2024-03-08T06:40:05;10.27;;;7.87;;
19257;SDS011;9763;48.780;9.212;2024-03-08T06:43:33;9.00;;;7.20;;
19257;SDS011;9763;48.780;9.212;2024-03-08T06:46:57;8.60;;;6.90;;
19257;SDS011;9763;48.780;9.212;2024-03-08T06:50:22;8.40;;;6.90;;
19257;SDS011;9763;48.780;9.212;2024-03-08T06:53:47;9.37;;;7.50;;
19257;SDS011;9763;48.780;9.212;2024-03-08T06:57:11;7.80;;;6.73;;
19257;SDS011;9763;48.780;9.212;2024-03-08T07:00:35;9.20;;;7.30;;
19257;SDS011;9763;48.780;9.212;2024-03-08T07:04:00;7.90;;;6.40;;
19257;SDS011;9763;48.780;9.212;2024-03-08T07:07:26;7.60;;;6.17;;
19257;SDS011;9763;48.780;9.212;2024-03-08T07:10:53;8.60;;;7.20;;
19257;SDS011;9763;48.780;9.212;2024-03-08T07:14:21;8.07;;;6.77;;
19257;SDS011;9763;48.780;9.212;2024-03-08T07:17:46;10.93;;;7.00;;
19257;SDS011;9763;48.780;9.212;2024-03-08T07:21:10;7.87;;;5.77;;
19257;SDS011;9763;48.780;9.212;2024-03-08T07:24:34;8.53;;;7.20;;
19257;SDS011;9763;48.780;9.212;2024-03-08T07:28:19;8.70;;;7.53;;
19257;SDS011;9763;48.780;9.212;2024-03-08T07:31:43;6.93;;;5.70;;
19257;SDS011;9763;48.780;9.212;2024-03-08T07:35:12;7.80;;;6.83;;
19257;SDS011;9763;48.780;9.212;2024-03-08T07:38:36;8.30;;;7.07;;
19257;SDS011;9763;48.780;9.212;2024-03-08T07:42:00;7.43;;;6.50;;
19257;SDS011;9763;48.780;9.212;2024-03-08T07:45:25;6.90;;;5.87;;
19257;SDS011;9763;48.780;9.212;2024-03-08T07:48:49;7.97;;;7.17;;
19257;SDS011;9763;48.780;9.212;2024-03-08T07:52:13;7.40;;;6.27;;
19257;SDS011;9763;48.780;9.212;2024-03-08T07:55:39;7.47;;;6.67;;
19257;SDS011;9763;48.780;9.212;2024-03-08T07:59:04;8.80;;;5.80;;
19257;SDS011;9763;48.780;9.212;2024-03-08T08:02:29;7.53;;;6.63;;
19257;SDS011;9763;48.780;9.212;2024-03-08T08:05:56;7.43;;;6.63;;
19257;SDS011;9763;48.780;9.212;2024-03-08T08:09:19;8.33;;;6.30;;
19257;SDS011;9763;48.780;9.212;2024-03-08T08:12:50;10.10;;;8.70;;
19257;SDS011;9763;48.780;9.212;2024-03-08T08:16:14;8.43;;;7.53;;
19257;SDS011;9763;48.780;9.212;2024-03-08T08:19:40;10.70;;;9.00;;
19257;SDS011;9763;48.780;9.212;2024-03-08T08:23:05;9.73;;;8.10;;
19257;SDS011;9763;48.780;9.212;2024-03-08T08:26:29;10.57;;;8.90;;
19257;SDS011;9763;48.780;9.212;2024-03-08T08:30:01;10.77;;;9.17;;
19257;SDS011;9763;48.780;9.212;2024-03-08T08:33:30;9.73;;;8.73;;
19257;SDS011;9763;48.780;9.212;2024-03-08T08:36:58;9.30;;;6.77;;
19257;SDS011;9763;48.780;9.212;2024-03-08T08:40:22;8.70;;;7.10;;
19257;SDS011;9763;48.780;9.212;2024-03-08T08:43:49;9.93;;;6.97;;
19257;SDS011;9763;48.780;9.212;2024-03-08T08:47:30;8.80;;;7.10;;
19257;SDS011;9763;48.780;9.212;2024-03-08T08:50:53;9.47;;;8.30;;
19257;SDS011;9763;48.780;9.212;2024-03-08T08:54:18;9.60;;;8.17;;
19257;SDS011;9763;48.780;9.212;2024-03-08T08:57:43;11.43;;;8.90;;
19257;SDS011;9763;48.780;9.212;2024-03-08T09:01:07;10.90;;;8.90;;
19257;SDS011;9763;48.780;9.212;2024-03-08T09:04:31;8.17;;;6.73;;
19257;SDS011;9763;48.780;9.212;2024-03-08T09:07:57;9.60;;;7.83;;
19257;SDS011;9763;48.780;9.212;2024-03-08T09:11:23;9.43;;;7.47;;
19257;SDS011;9763;48.780;9.212;2024-03-08T09:14:47;9.50;;;7.17;;
19257;SDS011;9763;48.780;9.212;2024-03-08T09:18:10;8.03;;;6.23;;
19257;SDS011;9763;48.780;9.212;2024-03-08T09:21:34;7.60;;;6.20;;
19257;SDS011;9763;48.780;9.212;2024-03-08T09:24:58;8.00;;;6.73;;
19257;SDS011;9763;48.780;9.212;2024-03-08T09:28:23;7.73;;;6.47;;
19257;SDS011;9763;48.780;9.212;2024-03-08T09:31:46;8.23;;;6.30;;
19257;SDS011;9763;48.780;9.212;2024-03-08T09:35:10;8.70;;;6.63;;
19257;SDS011;9763;48.780;9.212;2024-03-08T09:38:34;9.30;;;6.50;;
19257;SDS011;9763;48.780;9.212;2024-03-08T09:41:58;7.90;;;7.10;;
19257;SDS011;9763;48.780;9.212;2024-03-08T09:45:23;9.40;;;6.67;;
19257;SDS011;9763;48.780;9.212;2024-03-08T09:48:51;8.40;;;6.13;;
19257;SDS011;9763;48.780;9.212;2024-03-08T09:52:15;7.50;;;6.30;;
19257;SDS011;9763;48.780;9.212;2024-03-08T09:55:41;9.10;;;7.53;;
19257;SDS011;9763;48.780;9.212;2024-03-08T09:59:07;8.17;;;7.10;;
19257;SDS011;9763;48.780;9.212;2024-03-08T10:03:04;8.00;;;6.80;;
19257;SDS011;9763;48.780;9.212;2024-03-08T10:06:27;8.53;;;6.60;;
19257;SDS011;9763;48.780;9.212;2024-03-08T10:09:52;11.37;;;8.10;;
19257;SDS011;9763;48.780;9.212;2024-03-08T10:13:16;9.27;;;7.63;;
19257;SDS011;9763;48.780;9.212;2024-03-08T10:16:41;8.03;;;7.23;;
19257;SDS011;9763;48.780;9.212;2024-03-08T10:20:09;8.20;;;6.93;;
19257;SDS011;9763;48.780;9.212;2024-03-08T10:23:37;8.70;;;7.17;;
19257;SDS011;9763;48.780;9.212;2024-03-08T10:27:04;7.70;;;6.70;;
19257;SDS011;9763;48.780;9.212;2024-03-08T10:30:28;9.60;;;6.63;;
19257;SDS011;9763;48.780;9.212;2024-03-08T10:33:52;8.57;;;6.63;;
19257;SDS011;9763;48.780;9.212;2024-03-08T10:37:17;6.63;;;5.70;;
19257;SDS011;9763;48.780;9.212;2024-03-08T10:40:46;8.50;;;7.00;;
19257;SDS011;9763;48.780;9.212;2024-03-08T10:44:17;7.93;;;6.77;;
19257;SDS011;9763;48.780;9.212;2024-03-08T10:47:58;6.70;;;5.60;;
19257;SDS011;9763;48.780;9.212;2024-03-08T10:51:31;7.23;;;5.90;;
19257;SDS011;9763;48.780;9.212;2024-03-08T10:54:57;7.03;;;6.33;;
19257;SDS011;9763;48.780;9.212;2024-03-08T10:58:22;7.67;;;5.90;;
19257;SDS011;9763;48.780;9.212;2024-03-08T11:01:48;9.30;;;7.50;;
19257;SDS011;9763;48.780;9.212;2024-03-08T11:05:15;8.00;;;6.53;;
19257;SDS011;9763;48.780;9.212;2024-03-08T11:08:57;8.70;;;6.47;;
19257;SDS011;9763;48.780;9.212;2024-03-08T11:12:23;8.60;;;6.47;;
19257;SDS011;9763;48.780;9.212;2024-03-08T11:15:50;7.83;;;6.20;;
19257;SDS011;9763;48.780;9.212;2024-03-08T11:19:24;7.10;;;6.40;;
19257;SDS011;9763;48.780;9.212;2024-03-08T11:22:52;7.73;;;6.37;;
19257;SDS011;9763;48.780;9.212;2024-03-08T11:26:18;7.67;;;6.60;;
19257;SDS011;9763;48.780;9.212;2024-03-08T11:29:44;7.87;;;7.07;;
19257;SDS011;9763;48.780;9.212;2024-03-08T11:33:10;7.80;;;6.77;;
19257;SDS011;9763;48.780;9.212;2024-03-08T11:36:35;10.00;;;8.17;;
19257;SDS011;9763;48.780;9.212;2024-03-08T11:39:59;9.47;;;7.40;;
19257;SDS011;9763;48.780;9.212;2024-03-08T11:43:26;10.20;;;8.40;;
19257;SDS011;9763;48.780;9.212;2024-03-08T11:46:51;7.60;;;6.43;;
19257;SDS011;9763;48.780;9.212;2024-03-08T11:50:15;7.60;;;6.60;;
19257;SDS011;9763;48.780;9.212;2024-03-08T11:53:41;7.90;;;6.80;;
19257;SDS011;9763;48.780;9.212;2024-03-08T11:57:09;7.77;;;6.97;;
19257;SDS011;9763;48.780;9.212;2024-03-08T12:00:32;9.30;;;8.30;;
19257;SDS011;9763;48.780;9.212;2024-03-08T12:04:01;8.00;;;7.20;;
19257;SDS011;9763;48.780;9.212;2024-03-08T12:07:27;10.30;;;9.20;;
19257;SDS011;9763;48.780;9.212;2024-03-08T12:10:51;9.90;;;8.90;;
19257;SDS011;9763;48.780;9.212;2024-03-08T12:14:17;10.33;;;9.23;;
19257;SDS011;9763;48.780;9.212;2024-03-08T12:17:41;9.43;;;8.43;;
19257;SDS011;9763;48.780;9.212;2024-03-08T12:21:06;8.53;;;7.33;;
19257;SDS011;9763;48.780;9.212;2024-03-08T12:24:32;9.77;;;8.80;;
19257;SDS011;9763;48.780;9.212;2024-03-08T12:27:56;8.90;;;8.00;;
19257;SDS011;9763;48.780;9.212;2024-03-08T12:31:32;9.30;;;8.37;;
19257;SDS011;9763;48.780;9.212;2024-03-08T12:34:55;8.70;;;7.60;;
19257;SDS011;9763;48.780;9.212;2024-03-08T12:38:21;10.07;;;8.57;;
19257;SDS011;9763;48.780;9.212;2024-03-08T12:41:47;9.60;;;8.50;;
19257;SDS011;9763;48.780;9.212;2024-03-08T12:45:11;9.93;;;8.53;;
19257;SDS011;9763;48.780;9.212;2024-03-08T12:48:34;9.27;;;7.90;;
19257;SDS011;9763;48.780;9.212;2024-03-08T12:52:02;9.13;;;7.40;;
19257;SDS011;9763;48.780;9.212;2024-03-08T12:55:27;9.70;;;7.70;;
19257;SDS011;9763;48.780;9.212;2024-03-08T12:58:50;14.00;;;8.83;;
19257;SDS011;9763;48.780;9.212;2024-03-08T13:02:15;9.03;;;7.60;;
19257;SDS011;9763;48.780;9.212;2024-03-08T13:05:38;10.20;;;8.13;;
19257;SDS011;9763;48.780;9.212;2024-03-08T13:09:04;8.57;;;6.93;;
19257;SDS011;9763;48.780;9.212;2024-03-08T13:12:28;7.90;;;6.77;;
19257;SDS011;9763;48.780;9.212;2024-03-08T13:15:52;9.80;;;7.57;;
19257;SDS011;9763;48.780;9.212;2024-03-08T13:19:18;8.43;;;6.97;;
19257;SDS011;9763;48.780;9.212;2024-03-08T13:22:43;9.57;;;8.27;;
19257;SDS011;9763;48.780;9.212;2024-03-08T13:26:09;9.67;;;7.43;;
19257;SDS011;9763;48.780;9.212;2024-03-08T13:29:38;8.27;;;6.97;;
19257;SDS011;9763;48.780;9.212;2024-03-08T13:33:02;9.20;;;7.67;;
19257;SDS011;9763;48.780;9.212;2024-03-08T13:36:29;9.30;;;7.33;;
19257;SDS011;9763;48.780;9.212;2024-03-08T13:40:00;12.70;;;9.03;;
19257;SDS011;9763;48.780;9.212;2024-03-08T13:43:27;11.20;;;7.10;;
19257;SDS011;9763;48.780;9.212;2024-03-08T13:46:52;9.23;;;7.70;;
19257;SDS011;9763;48.780;9.212;2024-03-08T13:50:16;12.13;;;9.70;;
19257;SDS011;9763;48.780;9.212;2024-03-08T13:53:42;13.73;;;9.40;;
19257;SDS011;9763;48.780;9.212;2024-03-08T13:57:06;8.97;;;7.37;;
19257;SDS011;9763;48.780;9.212;2024-03-08T14:00:30;9.30;;;8.20;;
19257;SDS011;9763;48.780;9.212;2024-03-08T14:03:57;9.57;;;7.67;;
19257;SDS011;9763;48.780;9.212;2024-03-08T14:07:21;8.50;;;6.60;;
19257;SDS011;9763;48.780;9.212;2024-03-08T14:10:45;9.30;;;7.00;;
19257;SDS011;9763;48.780;9.212;2024-03-08T14:14:10;9.40;;;7.40;;
19257;SDS011;9763;48.780;9.212;2024-03-08T14:17:35;10.10;;;7.10;;
19257;SDS011;9763;48.780;9.212;2024-03-08T14:21:00;11.40;;;7.87;;
19257;SDS011;9763;48.780;9.212;2024-03-08T14:24:23;11.60;;;8.17;;
19257;SDS011;9763;48.780;9.212;2024-03-08T14:27:47;9.30;;;7.20;;
19257;SDS011;9763;48.780;9.212;2024-03-08T14:31:11;7.03;;;5.63;;
19257;SDS011;9763;48.780;9.212;2024-03-08T14:34:34;7.80;;;6.27;;
19257;SDS011;9763;48.780;9.212;2024-03-08T14:37:59;8.70;;;6.63;;
19257;SDS011;9763;48.780;9.212;2024-03-08T14:41:23;7.10;;;5.70;;
19257;SDS011;9763;48.780;9.212;2024-03-08T14:44:48;6.43;;;5.83;;
19257;SDS011;9763;48.780;9.212;2024-03-08T14:48:12;7.10;;;5.90;;
19257;SDS011;9763;48.780;9.212;2024-03-08T14:51:36;7.63;;;6.30;;
19257;SDS011;9763;48.780;9.212;2024-03-08T14:55:01;7.03;;;5.30;;
19257;SDS011;9763;48.780;9.212;2024-03-08T14:58:26;8.87;;;5.60;;
19257;SDS011;9763;48.780;9.212;2024-03-08T15:01:50;8.33;;;7.23;;
19257;SDS011;9763;48.780;9.212;2024-03-08T15:05:13;9.00;;;7.27;;
19257;SDS011;9763;48.780;9.212;2024-03-08T15:08:43;7.90;;;6.33;;
19257;SDS011;9763;48.780;9.212;2024-03-08T15:12:09;9.07;;;6.57;;
19257;SDS011;9763;48.780;9.212;2024-03-08T15:15:33;7.13;;;5.70;;
19257;SDS011;9763;48.780;9.212;2024-03-08T15:18:56;10.07;;;6.93;;
19257;SDS011;9763;48.780;9.212;2024-03-08T15:22:22;9.27;;;6.43;;
19257;SDS011;9763;48.780;9.212;2024-03-08T15:25:45;8.90;;;7.10;;
19257;SDS011;9763;48.780;9.212;2024-03-08T15:29:12;9.60;;;7.47;;
19257;SDS011;9763;48.780;9.212;2024-03-08T15:32:35;9.97;;;7.50;;
19257;SDS011;9763;48.780;9.212;2024-03-08T15:35:59;8.17;;;6.80;;
19257;SDS011;9763;48.780;9.212;2024-03-08T15:39:29;6.90;;;5.97;;
19257;SDS011;9763;48.780;9.212;2024-03-08T15:42:55;7.93;;;6.33;;
19257;SDS011;9763;48.780;9.212;2024-03-08T15:46:21;7.67;;;5.90;;
19257;SDS011;9763;48.780;9.212;2024-03-08T15:49:45;7.50;;;6.40;;
19257;SDS011;9763;48.780;9.212;2024-03-08T15:53:09;8.47;;;6.67;;
19257;SDS011;9763;48.780;9.212;2024-03-08T15:56:34;7.50;;;6.63;;
19257;SDS011;9763;48.780;9.212;2024-03-08T15:59:57;8.03;;;5.90;;
19257;SDS011;9763;48.780;9.212;2024-03-08T16:03:24;8.17;;;6.93;;
19257;SDS011;9763;48.780;9.212;2024-03-08T16:06:49;7.90;;;7.00;;
19257;SDS011;9763;48.780;9.212;2024-03-08T16:10:13;9.07;;;7.37;;
19257;SDS011;9763;48.780;9.212;2024-03-08T16:13:37;9.17;;;7.50;;
19257;SDS011;9763;48.780;9.212;2024-03-08T16:17:01;7.20;;;5.87;;
19257;SDS011;9763;48.780;9.212;2024-03-08T16:20:26;10.50;;;7.17;;
19257;SDS011;9763;48.780;9.212;2024-03-08T16:23:49;7.87;;;6.40;;
19257;SDS011;9763;48.780;9.212;2024-03-08T16:27:15;8.50;;;6.27;;
19257;SDS011;9763;48.780;9.212;2024-03-08T16:30:38;6.93;;;5.57;;
19257;SDS011;9763;48.780;9.212;2024-03-08T16:34:04;6.10;;;5.33;;
19257;SDS011;9763;48.780;9.212;2024-03-08T16:37:30;6.10;;;5.27;;
19257;SDS011;9763;48.780;9.212;2024-03-08T16:40:55;7.13;;;5.83;;
19257;SDS011;9763;48.780;9.212;2024-03-08T16:44:23;6.40;;;4.87;;
19257;SDS011;9763;48.780;9.212;2024-03-08T16:47:46;5.90;;;5.30;;
19257;SDS011;9763;48.780;9.212;2024-03-08T16:51:13;6.60;;;5.60;;
19257;SDS011;9763;48.780;9.212;2024-03-08T16:54:37;6.03;;;4.97;;
19257;SDS011;9763;48.780;9.212;2024-03-08T16:58:13;6.20;;;4.73;;
19257;SDS011;9763;48.780;9.212;2024-03-08T17:01:37;7.83;;;5.60;;
19257;SDS011;9763;48.780;9.212;2024-03-08T17:05:03;16.83;;;10.63;;
19257;SDS011;9763;48.780;9.212;2024-03-08T17:08:27;9.70;;;7.57;;
19257;SDS011;9763;48.780;9.212;2024-03-08T17:11:53;9.07;;;6.60;;
19257;SDS011;9763;48.780;9.212;2024-03-08T17:15:17;6.13;;;4.97;;
19257;SDS011;9763;48.780;9.212;2024-03-08T17:18:43;5.97;;;4.60;;
19257;SDS011;9763;48.780;9.212;2024-03-08T17:22:07;6.50;;;4.87;;
19257;SDS011;9763;48.780;9.212;2024-03-08T17:25:31;5.30;;;4.40;;
19257;SDS011;9763;48.780;9.212;2024-03-08T17:28:58;3.93;;;3.30;;
19257;SDS011;9763;48.780;9.212;2024-03-08T17:32:23;5.20;;;3.70;;
19257;SDS011;9763;48.780;9.212;2024-03-08T17:35:46;5.90;;;4.70;;
19257;SDS011;9763;48.780;9.212;2024-03-08T17:39:10;5.77;;;4.73;;
19257;SDS011;9763;48.780;9.212;2024-03-08T17:42:40;5.50;;;4.67;;
19257;SDS011;9763;48.780;9.212;2024-03-08T17:46:05;5.50;;;4.27;;
19257;SDS011;9763;48.780;9.212;2024-03-08T17:49:29;5.93;;;4.30;;
19257;SDS011;9763;48.780;9.212;2024-03-08T17:52:53;5.33;;;4.70;;
19257;SDS011;9763;48.780;9.212;2024-03-08T17:56:17;5.73;;;4.30;;
19257;SDS011;9763;48.780;9.212;2024-03-08T17:59:41;5.43;;;4.47;;
19257;SDS011;9763;48.780;9.212;2024-03-08T18:03:07;5.30;;;4.20;;
19257;SDS011;9763;48.780;9.212;2024-03-08T18:06:33;6.20;;;4.60;;
19257;SDS011;9763;48.780;9.212;2024-03-08T18:09:58;5.60;;;4.47;;
19257;SDS011;9763;48.780;9.212;2024-03-08T18:13:22;4.30;;;3.80;;
19257;SDS011;9763;48.780;9.212;2024-03-08T18:16:46;6.73;;;4.87;;
19257;SDS011;9763;48.780;9.212;2024-03-08T18:20:12;5.50;;;4.30;;
19257;SDS011;9763;48.780;9.212;2024-03-08T18:23:36;7.47;;;4.60;;
19257;SDS011;9763;48.780;9.212;2024-03-08T18:27:01;5.37;;;4.60;;
19257;SDS011;9763;48.780;9.212;2024-03-08T18:30:25;4.50;;;3.70;;
19257;SDS011;9763;48.780;9.212;2024-03-08T18:33:49;6.93;;;5.13;;
19257;SDS011;9763;48.780;9.212;2024-03-08T18:37:14;5.97;;;5.20;;
19257;SDS011;9763;48.780;9.212;2024-03-08T18:40:38;5.60;;;5.00;;
19257;SDS011;9763;48.780;9.212;2024-03-08T18:44:07;5.40;;;4.13;;
19257;SDS011;9763;48.780;9.212;2024-03-08T18:47:35;6.30;;;4.80;;
19257;SDS011;9763;48.780;9.212;2024-03-08T18:50:59;5.53;;;4.30;;
19257;SDS011;9763;48.780;9.212;2024-03-08T18:54:24;6.97;;;4.77;;
19257;SDS011;9763;48.780;9.212;2024-03-08T18:57:48;5.37;;;4.00;;
19257;SDS011;9763;48.780;9.212;2024-03-08T19:01:14;4.87;;;4.37;;
19257;SDS011;9763;48.780;9.212;2024-03-08T19:04:42;5.00;;;4.37;;
19257;SDS011;9763;48.780;9.212;2024-03-08T19:08:06;5.33;;;3.70;;
19257;SDS011;9763;48.780;9.212;2024-03-08T19:11:32;5.33;;;3.90;;
19257;SDS011;9763;48.780;9.212;2024-03-08T19:14:56;3.60;;;3.00;;
19257;SDS011;9763;48.780;9.212;2024-03-08T19:18:20;5.33;;;3.90;;
19257;SDS011;9763;48.780;9.212;2024-03-08T19:21:46;4.60;;;3.37;;
19257;SDS011;9763;48.780;9.212;2024-03-08T19:25:09;4.47;;;3.63;;
19257;SDS011;9763;48.780;9.212;2024-03-08T19:28:35;5.30;;;4.63;;
19257;SDS011;9763;48.780;9.212;2024-03-08T19:31:59;4.00;;;3.60;;
19257;SDS011;9763;48.780;9.212;2024-03-08T19:35:23;3.40;;;3.10;;
19257;SDS011;9763;48.780;9.212;2024-03-08T19:38:48;4.40;;;3.90;;
19257;SDS011;9763;48.780;9.212;2024-03-08T19:42:11;5.63;;;3.90;;
19257;SDS011;9763;48.780;9.212;2024-03-08T19:45:37;3.90;;;3.37;;
19257;SDS011;9763;48.780;9.212;2024-03-08T19:49:02;3.60;;;3.30;;
19257;SDS011;9763;48.780;9.212;2024-03-08T19:52:25;4.10;;;3.70;;
19257;SDS011;9763;48.780;9.212;2024-03-08T19:55:49;5.10;;;3.60;;
19257;SDS011;9763;48.780;9.212;2024-03-08T19:59:14;4.70;;;3.70;;
19257;SDS011;9763;48.780;9.212;2024-03-08T20:02:39;4.00;;;3.43;;
19257;SDS011;9763;48.780;9.212;2024-03-08T20:06:07;3.47;;;3.17;;
19257;SDS011;9763;48.780;9.212;2024-03-08T20:09:30;4.03;;;3.47;;
19257;SDS011;9763;48.780;9.212;2024-03-08T20:12:54;4.30;;;3.10;;
19257;SDS011;9763;48.780;9.212;2024-03-08T20:16:18;4.30;;;3.40;;
19257;SDS011;9763;48.780;9.212;2024-03-08T20:19:44;3.40;;;3.00;;
19257;SDS011;9763;48.780;9.212;2024-03-08T20:23:08;4.37;;;3.20;;
19257;SDS011;9763;48.780;9.212;2024-03-08T20:26:34;3.57;;;3.20;;
19257;SDS011;9763;48.780;9.212;2024-03-08T20:29:58;4.50;;;3.40;;
19257;SDS011;9763;48.780;9.212;2024-03-08T20:33:21;4.23;;;3.73;;
19257;SDS011;9763;48.780;9.212;2024-03-08T20:36:46;4.00;;;3.03;;
19257;SDS011;9763;48.780;9.212;2024-03-08T20:40:10;3.67;;;3.20;;
19257;SDS011;9763;48.780;9.212;2024-03-08T20:43:35;4.13;;;3.23;;
19257;SDS011;9763;48.780;9.212;2024-03-08T20:46:58;3.40;;;3.10;;
19257;SDS011;9763;48.780;9.212;2024-03-08T20:50:22;4.00;;;3.13;;
19257;SDS011;9763;48.780;9.212;2024-03-08T20:53:47;3.00;;;2.63;;